createdAt,value
2022-12-19T00:01:38.861Z,35.05
2022-12-19T00:04:11.445Z,45.40
2022-12-19T00:06:43.872Z,36.13
2022-12-19T00:09:14.221Z,38.55
2022-12-19T00:11:43.200Z,41.20
2022-12-19T00:14:12.684Z,33.65
2022-12-19T00:16:41.353Z,34.47
2022-12-19T00:19:12.255Z,37.65
2022-12-19T00:21:40.847Z,40.85
2022-12-19T00:24:20.628Z,36.08
2022-12-19T00:26:51.033Z,34.40
2022-12-19T00:29:22.596Z,34.53
2022-12-19T00:31:53.398Z,34.97
2022-12-19T00:34:21.923Z,34.75
2022-12-19T00:36:50.650Z,38.65
2022-12-19T00:39:19.383Z,34.60
2022-12-19T00:41:48.139Z,42.03
2022-12-19T00:44:17.107Z,34.92
2022-12-19T00:46:51.514Z,38.22
2022-12-19T00:49:22.125Z,36.13
2022-12-19T00:51:50.809Z,36.40
2022-12-19T00:54:19.645Z,39.17
2022-12-19T00:56:49.094Z,32.85
2022-12-19T00:59:18.922Z,40.10
2022-12-19T01:01:58.276Z,35.97
2022-12-19T01:04:29.151Z,36.00
2022-12-19T01:07:02.290Z,43.13
2022-12-19T01:09:36.298Z,32.97
2022-12-19T01:12:25.118Z,36.15
2022-12-19T01:15:03.822Z,33.13
2022-12-19T01:17:43.980Z,36.22
2022-12-19T01:20:15.964Z,33.72
2022-12-19T01:22:45.749Z,38.70
2022-12-19T01:25:16.127Z,36.42
2022-12-19T01:27:44.703Z,32.70
2022-12-19T01:30:13.981Z,34.90
2022-12-19T01:32:44.148Z,35.60
2022-12-19T01:35:21.327Z,34.45
2022-12-19T01:37:58.763Z,36.22
2022-12-19T01:40:37.838Z,43.78
2022-12-19T01:43:07.289Z,37.13
2022-12-19T01:45:43.861Z,40.88
2022-12-19T01:48:44.062Z,39.70
2022-12-19T01:51:20.759Z,34.60
2022-12-19T01:53:58.548Z,39.13
2022-12-19T01:56:37.892Z,42.20
2022-12-19T01:59:11.599Z,31.10
2022-12-19T02:01:51.885Z,37.67
2022-12-19T02:04:29.482Z,30.80
2022-12-19T02:07:15.609Z,31.20
2022-12-19T02:09:52.469Z,35.60
2022-12-19T02:12:38.851Z,33.25
2022-12-19T02:15:11.108Z,33.70
2022-12-19T02:17:51.345Z,31.67
2022-12-19T02:20:46.783Z,33.78
2022-12-19T02:23:18.157Z,28.42
2022-12-19T02:26:20.764Z,33.13
2022-12-19T02:29:02.618Z,32.63
2022-12-19T02:31:37.627Z,30.55
2022-12-19T02:34:24.452Z,29.55
2022-12-19T02:37:12.125Z,28.23
2022-12-19T02:39:49.921Z,36.40
2022-12-19T02:42:27.720Z,31.75
2022-12-19T02:45:04.219Z,32.35
2022-12-19T02:47:35.335Z,32.35
2022-12-19T02:50:06.507Z,26.73
2022-12-19T02:52:35.612Z,23.45
2022-12-19T02:55:10.709Z,29.13
2022-12-19T02:58:10.703Z,31.75
2022-12-19T03:01:11.412Z,26.30
2022-12-19T03:04:19.633Z,27.90
2022-12-19T03:07:06.552Z,30.92
2022-12-19T03:09:57.061Z,29.02
2022-12-19T03:12:31.701Z,31.45
2022-12-19T03:15:02.285Z,29.58
2022-12-19T03:17:37.315Z,23.83
2022-12-19T03:20:12.124Z,28.20
2022-12-19T03:22:40.734Z,29.90
2022-12-19T03:25:10.383Z,29.95
2022-12-19T03:27:40.962Z,27.27
2022-12-19T03:30:13.448Z,30.90
2022-12-19T03:32:45.393Z,29.10
2022-12-19T03:35:23.493Z,25.08
2022-12-19T03:37:59.872Z,31.65
2022-12-19T03:40:33.993Z,30.92
2022-12-19T03:43:11.257Z,30.33
2022-12-19T03:46:11.178Z,28.38
2022-12-19T03:48:50.172Z,24.80
2022-12-19T03:51:28.412Z,24.52
2022-12-19T03:54:08.731Z,28.75
2022-12-19T03:56:58.621Z,22.70
2022-12-19T04:00:08.300Z,27.75
2022-12-19T04:02:50.747Z,23.83
2022-12-19T04:05:26.170Z,20.80
2022-12-19T04:08:02.151Z,27.15
2022-12-19T04:10:31.340Z,22.33
2022-12-19T04:13:24.407Z,24.95
2022-12-19T04:16:04.871Z,15.63
2022-12-19T04:18:35.764Z,22.42
2022-12-19T04:21:30.807Z,23.77
2022-12-19T04:24:06.975Z,24.52
2022-12-19T04:26:37.530Z,22.80
2022-12-19T04:29:08.747Z,25.77
2022-12-19T04:31:38.627Z,21.88
2022-12-19T04:34:07.499Z,20.35
2022-12-19T04:36:36.285Z,20.48
2022-12-19T04:39:05.269Z,19.60
2022-12-19T04:41:34.231Z,23.45
2022-12-19T04:44:02.797Z,23.92
2022-12-19T04:46:31.711Z,22.65
2022-12-19T04:49:00.476Z,22.23
2022-12-19T04:51:29.248Z,24.13
2022-12-19T04:53:58.315Z,20.83
2022-12-19T04:56:26.891Z,17.77
2022-12-19T04:59:00.295Z,27.15
2022-12-19T05:01:29.072Z,22.17
2022-12-19T05:04:04.098Z,21.75
2022-12-19T05:06:33.573Z,21.00
2022-12-19T05:09:02.515Z,21.33
2022-12-19T05:11:31.175Z,24.40
2022-12-19T05:14:00.654Z,29.45
2022-12-19T05:16:29.648Z,23.70
2022-12-19T05:18:58.466Z,24.73
2022-12-19T05:21:27.256Z,25.98
2022-12-19T05:23:56.055Z,26.70
2022-12-19T05:26:25.056Z,23.60
2022-12-19T05:28:54.063Z,27.00
2022-12-19T05:31:23.110Z,29.10
2022-12-19T05:33:52.459Z,32.40
2022-12-19T05:36:21.182Z,26.40
2022-12-19T05:38:52.164Z,33.05
2022-12-19T05:41:21.845Z,29.73
2022-12-19T05:43:52.742Z,35.13
2022-12-19T05:46:22.465Z,29.00
2022-12-19T05:48:51.549Z,27.30
2022-12-19T05:51:21.532Z,27.80
2022-12-19T05:53:50.374Z,26.13
2022-12-19T05:56:21.277Z,31.38
2022-12-19T05:58:50.885Z,28.58
2022-12-19T06:01:22.779Z,30.83
2022-12-19T06:03:52.541Z,25.20
2022-12-19T06:06:26.220Z,25.98
2022-12-19T06:09:00.263Z,29.00
2022-12-19T06:11:29.136Z,30.85
2022-12-19T06:13:58.128Z,26.55
2022-12-19T06:16:26.968Z,29.20
2022-12-19T06:18:55.851Z,30.50
2022-12-19T06:21:25.368Z,30.73
2022-12-19T06:23:55.549Z,30.83
2022-12-19T06:26:24.546Z,28.25
2022-12-19T06:28:54.142Z,34.90
2022-12-19T06:31:25.660Z,28.85
2022-12-19T06:33:56.034Z,30.45
2022-12-19T06:36:30.159Z,31.88
2022-12-19T06:38:59.213Z,21.85
2022-12-19T06:41:47.077Z,30.50
2022-12-19T06:44:18.004Z,28.45
2022-12-19T06:46:49.633Z,29.42
2022-12-19T06:49:18.369Z,27.30
2022-12-19T06:51:47.781Z,25.20
2022-12-19T06:54:16.760Z,23.45
2022-12-19T06:56:45.658Z,27.73
2022-12-19T06:59:16.652Z,29.33
2022-12-19T07:02:13.011Z,29.17
2022-12-19T07:04:47.260Z,21.25
2022-12-19T07:07:15.969Z,23.13
2022-12-19T07:09:44.893Z,28.33
2022-12-19T07:12:15.759Z,30.92
2022-12-19T07:14:53.016Z,28.70
2022-12-19T07:17:25.083Z,31.17
2022-12-19T07:19:59.221Z,25.27
2022-12-19T07:22:34.177Z,27.52
2022-12-19T07:25:04.936Z,22.00
2022-12-19T07:27:36.069Z,22.95
2022-12-19T07:30:06.769Z,21.58
2022-12-19T07:32:36.403Z,26.95
2022-12-19T07:35:05.520Z,25.00
2022-12-19T07:37:34.094Z,22.95
2022-12-19T07:40:02.812Z,24.00
2022-12-19T07:42:32.871Z,23.98
2022-12-19T07:45:02.090Z,27.50
2022-12-19T07:47:30.817Z,20.75
2022-12-19T07:49:59.758Z,21.15
2022-12-19T07:52:28.798Z,21.80
2022-12-19T07:54:57.272Z,21.05
2022-12-19T07:57:25.975Z,27.80
2022-12-19T07:59:54.826Z,26.65
2022-12-19T08:02:23.733Z,21.75
2022-12-19T08:04:53.693Z,24.02
2022-12-19T08:07:22.470Z,27.45
2022-12-19T08:09:51.109Z,18.52
2022-12-19T08:12:19.875Z,23.85
2022-12-19T08:14:52.794Z,23.75
2022-12-19T08:17:24.625Z,23.92
2022-12-19T08:19:55.716Z,20.50
2022-12-19T08:22:24.313Z,23.40
2022-12-19T08:24:53.347Z,20.98
2022-12-19T08:27:22.133Z,20.83
2022-12-19T08:29:53.479Z,23.17
2022-12-19T08:32:22.542Z,18.63
2022-12-19T08:34:51.499Z,16.80
2022-12-19T08:37:20.089Z,20.08
2022-12-19T08:39:51.319Z,20.30
2022-12-19T08:42:20.213Z,30.17
2022-12-19T08:44:48.848Z,22.45
2022-12-19T08:47:17.885Z,17.73
2022-12-19T08:49:46.543Z,18.77
2022-12-19T08:52:17.725Z,21.42
2022-12-19T08:54:46.727Z,20.25
2022-12-19T08:57:16.152Z,19.95
2022-12-19T08:59:45.305Z,20.98
2022-12-19T09:02:17.018Z,18.52
2022-12-19T09:05:59.965Z,17.42
2022-12-19T09:07:37.864Z,15.43
2022-12-19T09:10:08.725Z,18.77
2022-12-19T09:12:40.622Z,24.60
2022-12-19T09:15:12.085Z,22.55
2022-12-19T09:17:41.109Z,21.75
2022-12-19T09:20:19.647Z,17.45
2022-12-19T09:22:51.675Z,22.48
2022-12-19T09:25:20.480Z,18.20
2022-12-19T09:28:25.964Z,15.15
2022-12-19T09:30:38.127Z,19.98
2022-12-19T09:33:09.263Z,18.20
2022-12-19T09:35:38.463Z,21.63
2022-12-19T09:38:07.383Z,16.60
2022-12-19T09:40:58.287Z,12.90
2022-12-19T09:43:45.365Z,12.77
2022-12-19T09:46:21.578Z,12.02
2022-12-19T09:48:55.471Z,10.77
2022-12-19T09:51:36.555Z,13.40
2022-12-19T09:54:21.476Z,18.23
2022-12-19T09:56:54.845Z,16.50
2022-12-19T09:59:49.722Z,14.88
2022-12-19T10:02:40.950Z,12.57
2022-12-19T10:05:42.894Z,10.93
2022-12-19T10:08:19.317Z,12.70
2022-12-19T10:12:36.465Z,13.90
2022-12-19T10:13:59.359Z,13.77
2022-12-19T10:16:39.977Z,17.77
2022-12-19T10:19:16.217Z,10.65
2022-12-19T10:22:18.182Z,14.48
2022-12-19T10:25:00.535Z,17.75
2022-12-19T10:28:00.019Z,14.18
2022-12-19T10:30:34.255Z,20.35
2022-12-19T10:33:30.418Z,18.98
2022-12-19T10:36:03.073Z,16.65
2022-12-19T10:38:50.307Z,12.32
2022-12-19T10:41:27.899Z,13.13
2022-12-19T10:44:06.329Z,22.92
2022-12-19T10:46:51.519Z,18.42
2022-12-19T10:49:31.765Z,13.35
2022-12-19T10:52:05.540Z,14.57
2022-12-19T10:54:40.243Z,11.38
2022-12-19T10:57:23.998Z,16.23
2022-12-19T11:00:04.831Z,19.85
2022-12-19T11:02:54.326Z,14.75
2022-12-19T11:05:25.641Z,16.70
2022-12-19T11:08:32.258Z,20.23
2022-12-19T11:13:17.636Z,14.18
2022-12-19T11:19:23.208Z,11.63
2022-12-19T11:21:53.445Z,16.38
2022-12-19T11:29:17.678Z,12.88
2022-12-19T11:29:33.110Z,16.73
2022-12-19T11:29:36.581Z,19.85
2022-12-19T11:30:45.892Z,14.75
2022-12-19T11:34:25.125Z,9.23
2022-12-19T11:37:18.237Z,19.10
2022-12-19T11:39:57.568Z,12.55
2022-12-19T11:42:26.299Z,15.18
2022-12-19T11:45:08.492Z,15.60
2022-12-19T11:47:46.667Z,16.27
2022-12-19T11:50:23.782Z,11.32
2022-12-19T11:53:19.177Z,14.43
2022-12-19T11:55:56.928Z,21.45
2022-12-19T11:58:30.450Z,14.07
2022-12-19T12:01:42.562Z,16.52
2022-12-19T12:04:42.542Z,15.82
2022-12-19T12:07:52.064Z,11.15
2022-12-19T12:13:33.016Z,16.00
2022-12-19T12:21:57.678Z,18.52
2022-12-19T12:29:39.833Z,16.10
2022-12-19T12:31:10.129Z,14.48
2022-12-19T12:31:14.620Z,14.07
2022-12-19T12:31:49.898Z,16.40
2022-12-19T12:32:04.343Z,15.35
2022-12-19T12:35:46.392Z,18.92
2022-12-19T12:42:06.557Z,17.65
2022-12-19T12:44:46.114Z,18.05
2022-12-19T12:47:46.009Z,20.25
2022-12-19T12:50:19.120Z,16.27
2022-12-19T12:52:52.302Z,13.98
2022-12-19T12:55:36.284Z,24.65
2022-12-19T12:58:10.585Z,17.83
2022-12-19T13:01:10.282Z,23.55
2022-12-19T13:03:43.387Z,14.95
2022-12-19T13:06:34.367Z,15.63
2022-12-19T13:09:21.410Z,12.15
2022-12-19T13:12:50.661Z,18.85
2022-12-19T13:15:28.861Z,17.65
2022-12-19T13:17:58.115Z,15.52
2022-12-19T13:20:27.777Z,15.07
2022-12-19T13:22:59.606Z,16.48
2022-12-19T13:25:29.188Z,14.43
2022-12-19T13:28:22.799Z,14.63
2022-12-19T13:31:16.629Z,18.73
2022-12-19T13:33:55.959Z,16.75
2022-12-19T13:39:54.399Z,18.27
2022-12-19T13:43:17.691Z,17.80
2022-12-19T13:45:54.005Z,19.70
2022-12-19T13:48:37.262Z,17.60
2022-12-19T13:51:12.147Z,18.02
2022-12-19T13:53:43.724Z,14.88
2022-12-19T13:56:18.742Z,21.55
2022-12-19T13:59:03.712Z,18.08
2022-12-19T14:01:38.354Z,22.52
2022-12-19T14:06:46.661Z,18.48
2022-12-19T14:11:29.807Z,19.10
2022-12-19T14:13:43.659Z,17.85
2022-12-19T14:15:51.893Z,22.25
2022-12-19T14:18:44.720Z,27.00
2022-12-19T14:22:04.417Z,26.25
2022-12-19T14:24:25.900Z,20.77
2022-12-19T14:28:18.425Z,18.42
2022-12-19T14:30:30.510Z,17.73
2022-12-19T14:33:47.343Z,18.40
2022-12-19T14:36:06.919Z,19.02
2022-12-19T14:39:21.193Z,17.55
2022-12-19T14:41:49.359Z,16.42
2022-12-19T14:52:25.933Z,21.40
2022-12-19T14:52:34.499Z,16.27
2022-12-19T14:54:05.765Z,22.63
2022-12-19T14:54:37.410Z,18.55
2022-12-19T14:56:37.539Z,21.45
2022-12-19T15:02:03.245Z,18.23
2022-12-19T15:04:56.205Z,26.15
2022-12-19T15:07:31.696Z,25.90
2022-12-19T15:11:05.008Z,18.90
2022-12-19T15:14:55.374Z,20.35
2022-12-19T15:16:30.118Z,14.98
2022-12-19T15:19:01.251Z,20.65
2022-12-19T15:21:31.936Z,27.20
2022-12-19T15:24:00.584Z,40.50
2022-12-19T15:26:35.713Z,28.25
2022-12-19T15:29:15.450Z,38.83
2022-12-19T15:31:49.424Z,20.17
2022-12-19T15:34:35.399Z,26.73
2022-12-19T15:37:05.010Z,21.88
2022-12-19T15:39:34.019Z,20.85
2022-12-19T15:42:03.410Z,26.30
2022-12-19T15:44:40.993Z,52.17
2022-12-19T15:47:32.536Z,27.70
2022-12-19T15:50:08.542Z,24.27
2022-12-19T15:52:37.603Z,15.18
2022-12-19T15:55:07.170Z,18.30
2022-12-19T15:57:39.269Z,23.35
2022-12-19T16:00:19.355Z,18.33
2022-12-19T16:05:37.787Z,22.08
2022-12-19T16:08:21.003Z,24.10
2022-12-19T16:11:01.163Z,26.40
2022-12-19T16:13:35.500Z,25.42
2022-12-19T16:16:13.021Z,20.55
2022-12-19T16:18:46.097Z,20.90
2022-12-19T16:21:20.683Z,21.98
2022-12-19T16:23:51.073Z,20.63
2022-12-19T16:26:41.270Z,20.80
2022-12-19T16:29:29.272Z,23.88
2022-12-19T16:31:58.557Z,17.33
2022-12-19T16:34:28.065Z,27.25
2022-12-19T16:36:58.638Z,18.15
2022-12-19T16:39:27.947Z,19.35
2022-12-19T16:41:57.588Z,28.23
2022-12-19T16:44:26.333Z,25.42
2022-12-19T16:46:55.210Z,22.63
2022-12-19T16:49:24.331Z,24.80
2022-12-19T16:51:53.875Z,20.63
2022-12-19T16:54:23.444Z,23.30
2022-12-19T16:56:55.169Z,23.23
2022-12-19T16:59:28.344Z,21.30
2022-12-19T17:01:58.211Z,24.60
2022-12-19T17:04:28.461Z,23.55
2022-12-19T17:06:57.657Z,25.50
2022-12-19T17:09:26.940Z,21.65
2022-12-19T17:12:01.138Z,20.98
2022-12-19T17:14:35.614Z,21.75
2022-12-19T17:17:04.708Z,18.48
2022-12-19T17:19:42.571Z,17.58
2022-12-19T17:22:18.912Z,19.35
2022-12-19T17:24:49.544Z,14.98
2022-12-19T17:27:19.896Z,18.00
2022-12-19T17:29:52.210Z,13.27
2022-12-19T17:32:24.551Z,22.58
2022-12-19T17:34:54.371Z,15.68
2022-12-19T17:37:26.550Z,16.48
2022-12-19T17:39:55.788Z,15.88
2022-12-19T17:42:28.742Z,21.02
2022-12-19T17:45:00.159Z,19.50
2022-12-19T17:47:30.584Z,13.73
2022-12-19T17:50:00.284Z,13.43
2022-12-19T17:52:30.374Z,18.48
2022-12-19T17:54:58.993Z,14.20
2022-12-19T17:57:27.978Z,12.90
2022-12-19T17:59:56.799Z,17.15
2022-12-19T18:02:27.725Z,17.02
2022-12-19T18:04:59.222Z,10.45
2022-12-19T18:07:28.143Z,20.52
2022-12-19T18:09:57.485Z,14.18
2022-12-19T18:12:27.260Z,14.55
2022-12-19T18:14:56.036Z,19.02
2022-12-19T18:17:26.982Z,21.15
2022-12-19T18:19:56.354Z,18.15
2022-12-19T18:22:25.543Z,26.67
2022-12-19T18:24:54.961Z,17.35
2022-12-19T18:27:23.922Z,15.98
2022-12-19T18:29:52.763Z,17.65
2022-12-19T18:32:22.439Z,13.43
2022-12-19T18:34:54.586Z,15.55
2022-12-19T18:37:23.651Z,16.17
2022-12-19T18:39:56.301Z,14.80
2022-12-19T18:42:24.974Z,14.50
2022-12-19T18:44:53.736Z,15.48
2022-12-19T18:47:24.340Z,19.02
2022-12-19T18:49:53.493Z,19.65
2022-12-19T18:52:22.273Z,19.63
2022-12-19T18:54:51.077Z,10.73
2022-12-19T18:57:19.674Z,11.15
2022-12-19T18:59:49.325Z,16.42
2022-12-19T19:02:28.836Z,11.70
2022-12-19T19:04:57.724Z,15.38
2022-12-19T19:07:26.690Z,12.77
2022-12-19T19:09:55.807Z,15.00
2022-12-19T19:12:44.831Z,13.20
2022-12-19T19:15:13.486Z,17.52
2022-12-19T19:17:43.043Z,14.73
2022-12-19T19:20:12.337Z,13.60
2022-12-19T19:22:41.187Z,16.30
2022-12-19T19:25:10.507Z,9.95
2022-12-19T19:27:40.730Z,9.77
2022-12-19T19:30:11.884Z,13.05
2022-12-19T19:32:53.130Z,8.07
2022-12-19T19:35:22.671Z,8.38
2022-12-19T19:37:57.205Z,18.33
2022-12-19T19:40:25.884Z,13.73
2022-12-19T19:42:54.967Z,12.77
2022-12-19T19:45:24.304Z,11.77
2022-12-19T19:47:56.226Z,10.02
2022-12-19T19:50:25.518Z,13.30
2022-12-19T19:52:54.939Z,13.35
2022-12-19T19:55:24.725Z,10.60
2022-12-19T19:57:53.980Z,13.65
2022-12-19T20:00:23.603Z,18.90
2022-12-19T20:02:53.646Z,14.88
2022-12-19T20:05:22.720Z,16.85
2022-12-19T20:07:51.758Z,16.02
2022-12-19T20:10:20.851Z,14.48
2022-12-19T20:12:49.520Z,12.55
2022-12-19T20:15:18.661Z,14.75
2022-12-19T20:17:47.589Z,15.07
2022-12-19T20:20:16.660Z,13.95
2022-12-19T20:22:45.367Z,13.10
2022-12-19T20:25:14.193Z,15.10
2022-12-19T20:27:42.899Z,12.35
2022-12-19T20:30:12.669Z,10.70
2022-12-19T20:32:41.259Z,17.10
2022-12-19T20:35:14.548Z,14.65
2022-12-19T20:37:43.980Z,13.57
2022-12-19T20:40:13.661Z,28.02
2022-12-19T20:42:42.689Z,10.93
2022-12-19T20:45:11.429Z,11.13
2022-12-19T20:47:40.241Z,14.98
2022-12-19T20:50:09.535Z,11.23
2022-12-19T20:52:38.567Z,15.18
2022-12-19T20:55:10.628Z,14.73
2022-12-19T20:57:39.579Z,10.00
2022-12-19T21:00:09.576Z,10.98
2022-12-19T21:03:00.634Z,18.02
2022-12-19T21:05:27.885Z,12.52
2022-12-19T21:07:59.166Z,10.65
2022-12-19T21:10:27.802Z,10.23
2022-12-19T21:12:56.925Z,11.70
2022-12-19T21:15:26.025Z,11.23
2022-12-19T21:17:54.679Z,12.25
2022-12-19T21:20:23.443Z,9.10
2022-12-19T21:22:52.143Z,10.60
2022-12-19T21:25:21.227Z,11.27
2022-12-19T21:27:49.999Z,9.82
2022-12-19T21:30:19.691Z,9.30
2022-12-19T21:32:48.559Z,9.68
2022-12-19T21:35:17.217Z,13.80
2022-12-19T21:37:50.706Z,15.40
2022-12-19T21:40:21.030Z,13.23
2022-12-19T21:42:49.778Z,11.32
2022-12-19T21:45:18.862Z,19.60
2022-12-19T21:47:47.815Z,10.90
2022-12-19T21:50:16.871Z,12.60
2022-12-19T21:52:45.945Z,12.50
2022-12-19T21:55:14.560Z,10.50
2022-12-19T21:57:44.028Z,11.18
2022-12-19T22:00:14.503Z,9.65
2022-12-19T22:03:01.525Z,16.38
2022-12-19T22:05:32.220Z,17.95
2022-12-19T22:08:01.573Z,13.73
2022-12-19T22:10:31.356Z,10.55
2022-12-19T22:13:00.499Z,8.68
2022-12-19T22:15:29.260Z,15.15
2022-12-19T22:17:57.702Z,8.13
2022-12-19T22:20:26.420Z,12.63
2022-12-19T22:22:55.314Z,11.68
2022-12-19T22:25:24.071Z,6.25
2022-12-19T22:27:55.924Z,12.52
2022-12-19T22:30:24.457Z,10.73
2022-12-19T22:32:53.248Z,10.98
2022-12-19T22:35:21.714Z,7.78
2022-12-19T22:37:50.493Z,10.63
2022-12-19T22:40:19.824Z,8.50
2022-12-19T22:42:49.232Z,8.68
2022-12-19T22:45:18.670Z,8.68
2022-12-19T22:47:48.480Z,6.38
2022-12-19T22:50:17.109Z,9.13
2022-12-19T22:52:46.319Z,10.50
2022-12-19T22:55:15.020Z,11.20
2022-12-19T22:57:43.874Z,12.32
2022-12-19T23:00:15.395Z,10.73
2022-12-19T23:02:46.552Z,10.43
2022-12-19T23:05:15.536Z,8.05
2022-12-19T23:07:44.972Z,11.23
2022-12-19T23:10:13.938Z,8.68
2022-12-19T23:12:42.706Z,8.82
2022-12-19T23:15:11.821Z,8.77
2022-12-19T23:17:40.618Z,9.55
2022-12-19T23:20:09.958Z,9.25
2022-12-19T23:22:38.859Z,11.77
2022-12-19T23:25:08.322Z,8.13
2022-12-19T23:27:37.100Z,7.80
2022-12-19T23:30:12.272Z,6.70
2022-12-19T23:32:44.230Z,9.50
2022-12-19T23:35:18.486Z,12.80
2022-12-19T23:37:47.995Z,8.48
2022-12-19T23:40:16.968Z,12.38
2022-12-19T23:42:45.808Z,12.75
2022-12-19T23:45:14.627Z,12.70
2022-12-19T23:47:43.522Z,10.68
2022-12-19T23:50:12.951Z,9.73
2022-12-19T23:52:42.679Z,11.88
2022-12-19T23:55:12.239Z,15.00
2022-12-19T23:57:41.056Z,10.10
